JOHN F KENNEDY INTL

KJFK (JFK)
New York, New York
Towered

Vatsim Metar:
KJFK 291851Z 19015KT 10SM FEW045 BKN100 BKN200 OVC250 08/04 A3014 RMK AO2 SLP205 T00780039 $

JOHN F KENNEDY INTL ATC

JFK_TWR - 119.100 - Brin Brody
Helsinki Control Mentoring EFIN_CTR

Traffic

Inbound:
Ident
Type
Name
ETA
Phase
SWA710
B738
L Mason KGNV
19:31 Z
Descent
AAL3142
B738
Spencer N. KJFK
19:31 Z
Descent
JBU235
A321
Wojtek EPPO
19:32 Z
Descent
AAL2458
A320
Tim O'Donnell KPHL
19:36 Z
Cruse
N39ER
C25C
August Halverson KMSP
Boarding
VIR5C
A339
Callum Williams EGNX
20:16 Z
Cruse
UWA419
B738
Dennis Graiani KHPN
20:10 Z
Cruse
DAL103
B753
Keaton Harris KATL
Boarding
WAT1375
B738
1442584 N07
20:17 Z
Cruse
BVI344
B744
Laurentiu Kovaci EIDW
20:47 Z
Cruse
BAW15K
B772
Martin Cordero KMIA
21:27 Z
Cruse
AAL342
B737
Randy Fordjour KJFK
Taxiing Out
AAL107
B788
ollie bradley EGBB
22:11 Z
Cruse

Outbound:
Ident
Type
Name
Destination
Phase
DAL279
A320
Owen Walden KLAX
KMSP
Boarding
AAL198
B772
Hassan Jehangir KBDL
LIMC
Boarding
KAL82
A388
1671364 RPLL
RKSI
Climb
AAL1289
B738
Jonathan Prunczik 2GC
TXKF
Climb